createdAt,value
2017-01-20T00:00:48.556Z,0
2017-01-20T00:01:48.881Z,0
2017-01-20T00:02:49.274Z,0
2017-01-20T00:03:48.821Z,0
2017-01-20T00:04:48.812Z,0
2017-01-20T00:05:49.171Z,0
2017-01-20T00:06:49.152Z,0
2017-01-20T00:07:48.748Z,0
2017-01-20T00:08:49.095Z,0
2017-01-20T00:09:48.666Z,0
2017-01-20T00:10:48.245Z,0
2017-01-20T00:11:48.618Z,0
2017-01-20T00:12:48.985Z,0
2017-01-20T00:13:48.956Z,0
2017-01-20T00:14:48.935Z,0
2017-01-20T00:15:48.902Z,0
2017-01-20T00:16:48.103Z,0
2017-01-20T00:17:48.043Z,0
2017-01-20T00:18:48.432Z,0
2017-01-20T00:19:47.590Z,0
2017-01-20T00:20:47.949Z,0
2017-01-20T00:21:48.759Z,0
2017-01-20T00:22:48.750Z,0
2017-01-20T00:23:47.879Z,0
2017-01-20T00:24:48.631Z,0
2017-01-20T00:25:47.831Z,0
2017-01-20T00:26:48.208Z,0
2017-01-20T00:27:47.764Z,0
2017-01-20T00:28:48.125Z,0
2017-01-20T00:29:48.232Z,0
2017-01-20T00:30:48.567Z,0
2017-01-20T00:31:48.467Z,0
2017-01-20T00:32:48.052Z,0
2017-01-20T00:33:47.993Z,0
2017-01-20T00:34:48.375Z,0
2017-01-20T00:35:47.930Z,0
2017-01-20T00:36:48.415Z,0
2017-01-20T00:37:47.869Z,0
2017-01-20T00:38:47.859Z,0
2017-01-20T00:39:47.831Z,0
2017-01-20T00:40:48.340Z,0
2017-01-20T00:41:47.781Z,0
2017-01-20T00:42:47.338Z,0
2017-01-20T00:43:47.727Z,0
2017-01-20T00:44:48.088Z,0
2017-01-20T00:45:48.067Z,0
2017-01-20T00:46:47.630Z,0
2017-01-20T00:47:48.047Z,0
2017-01-20T00:48:47.182Z,0
2017-01-20T00:49:47.561Z,0
2017-01-20T00:50:47.110Z,0
2017-01-20T00:51:47.079Z,0
2017-01-20T00:52:47.872Z,0
2017-01-20T00:53:47.848Z,0
2017-01-20T00:54:47.809Z,0
2017-01-20T00:55:46.968Z,0
2017-01-20T00:56:46.950Z,0
2017-01-20T00:57:47.316Z,0
2017-01-20T00:58:47.289Z,0
2017-01-20T00:59:47.265Z,0
2017-01-20T01:00:47.640Z,0
2017-01-20T01:01:47.617Z,0
2017-01-20T01:02:47.177Z,0
2017-01-20T01:03:47.171Z,0
2017-01-20T01:04:47.526Z,0
2017-01-20T01:05:47.555Z,0
2017-01-20T01:06:47.085Z,0
2017-01-20T01:07:47.447Z,0
2017-01-20T01:08:47.416Z,0
2017-01-20T01:09:47.011Z,0
2017-01-20T01:10:46.964Z,0
2017-01-20T01:11:46.973Z,0
2017-01-20T01:12:46.903Z,0
2017-01-20T01:13:46.873Z,0
2017-01-20T01:14:46.845Z,0
2017-01-20T01:15:46.814Z,0
2017-01-20T01:16:46.391Z,0
2017-01-20T01:17:46.759Z,0
2017-01-20T01:18:46.331Z,0
2017-01-20T01:19:47.097Z,0
2017-01-20T01:20:47.067Z,0
2017-01-20T01:21:46.245Z,0
2017-01-20T01:22:46.716Z,0
2017-01-20T01:23:46.602Z,0
2017-01-20T01:24:47.034Z,0
2017-01-20T01:25:46.524Z,0
2017-01-20T01:26:46.606Z,0
2017-01-20T01:27:46.905Z,0
2017-01-20T01:28:46.472Z,0
2017-01-20T01:29:46.820Z,0
2017-01-20T01:30:46.878Z,0
2017-01-20T01:31:46.368Z,0
2017-01-20T01:32:45.966Z,0
2017-01-20T01:33:46.721Z,0
2017-01-20T01:34:46.679Z,0
2017-01-20T01:35:46.657Z,0
2017-01-20T01:36:46.336Z,0
2017-01-20T01:37:46.206Z,0
2017-01-20T01:38:46.216Z,0
2017-01-20T01:39:46.156Z,0
2017-01-20T01:40:46.136Z,0
2017-01-20T01:41:46.090Z,0
2017-01-20T01:42:46.059Z,0
2017-01-20T01:43:46.039Z,0
2017-01-20T01:44:46.092Z,0
2017-01-20T01:45:45.963Z,0
2017-01-20T01:46:45.952Z,0
2017-01-20T01:47:45.980Z,0
2017-01-20T01:48:45.501Z,0
2017-01-20T01:49:45.916Z,0
2017-01-20T01:50:45.831Z,0
2017-01-20T01:51:45.809Z,0
2017-01-20T01:52:45.869Z,0
2017-01-20T01:53:46.158Z,0
2017-01-20T01:54:45.709Z,0
2017-01-20T01:55:45.787Z,0
2017-01-20T01:56:45.667Z,0
2017-01-20T01:57:46.036Z,0
2017-01-20T01:58:45.207Z,0
2017-01-20T01:59:45.155Z,0
2017-01-20T02:00:45.542Z,0
2017-01-20T02:01:45.980Z,0
2017-01-20T02:02:46.000Z,0
2017-01-20T02:03:45.911Z,0
2017-01-20T02:04:45.493Z,0
2017-01-20T02:05:45.401Z,0
2017-01-20T02:06:45.461Z,0
2017-01-20T02:07:44.950Z,0
2017-01-20T02:08:45.732Z,0
2017-01-20T02:09:45.288Z,0
2017-01-20T02:10:45.293Z,0
2017-01-20T02:11:45.642Z,0
2017-01-20T02:12:45.603Z,0
2017-01-20T02:13:45.199Z,0
2017-01-20T02:14:45.562Z,0
2017-01-20T02:15:44.724Z,0
2017-01-20T02:16:45.193Z,0
2017-01-20T02:17:44.756Z,0
2017-01-20T02:18:45.445Z,0
2017-01-20T02:19:45.035Z,0
2017-01-20T02:20:44.996Z,0
2017-01-20T02:21:44.960Z,0
2017-01-20T02:22:44.933Z,0
2017-01-20T02:23:44.506Z,0
2017-01-20T02:24:44.872Z,0
2017-01-20T02:25:45.268Z,0
2017-01-20T02:26:44.452Z,0
2017-01-20T02:27:44.381Z,0
2017-01-20T02:28:44.434Z,0
2017-01-20T02:29:44.323Z,0
2017-01-20T02:30:44.687Z,0
2017-01-20T02:31:45.091Z,0
2017-01-20T02:32:44.656Z,0
2017-01-20T02:33:44.619Z,0
2017-01-20T02:34:44.206Z,0
2017-01-20T02:35:45.039Z,0
2017-01-20T02:36:44.127Z,0
2017-01-20T02:37:44.145Z,0
2017-01-20T02:38:44.475Z,0
2017-01-20T02:39:44.848Z,0
2017-01-20T02:40:44.409Z,0
2017-01-20T02:41:44.779Z,0
2017-01-20T02:42:44.762Z,0
2017-01-20T02:43:44.381Z,0
2017-01-20T02:44:44.798Z,0
2017-01-20T02:45:44.671Z,0
2017-01-20T02:46:44.690Z,0
2017-01-20T02:47:44.209Z,0
2017-01-20T02:48:43.779Z,0
2017-01-20T02:49:44.578Z,0
2017-01-20T02:50:44.518Z,0
2017-01-20T02:51:44.508Z,0
2017-01-20T02:52:44.481Z,0
2017-01-20T02:53:44.467Z,0
2017-01-20T02:54:44.020Z,0
2017-01-20T02:55:44.444Z,0
2017-01-20T02:56:44.364Z,0
2017-01-20T02:57:44.423Z,0
2017-01-20T02:58:43.517Z,0
2017-01-20T02:59:44.282Z,0
2017-01-20T03:00:43.452Z,0
2017-01-20T03:01:43.414Z,0
2017-01-20T03:02:43.790Z,0
2017-01-20T03:03:43.772Z,0
2017-01-20T03:04:43.734Z,0
2017-01-20T03:05:44.129Z,0
2017-01-20T03:06:42.872Z,0
2017-01-20T03:07:43.659Z,0
2017-01-20T03:08:43.681Z,0
2017-01-20T03:09:43.992Z,0
2017-01-20T03:10:43.227Z,0
2017-01-20T03:11:43.936Z,0
2017-01-20T03:12:43.522Z,0
2017-01-20T03:13:43.476Z,0
2017-01-20T03:14:43.464Z,0
2017-01-20T03:15:43.824Z,0
2017-01-20T03:16:42.985Z,0
2017-01-20T03:17:43.769Z,0
2017-01-20T03:18:43.348Z,0
2017-01-20T03:19:43.707Z,0
2017-01-20T03:20:43.691Z,0
2017-01-20T03:21:43.259Z,0
2017-01-20T03:22:43.675Z,0
2017-01-20T03:23:43.609Z,0
2017-01-20T03:24:43.652Z,0
2017-01-20T03:25:43.538Z,0
2017-01-20T03:26:43.108Z,0
2017-01-20T03:27:43.484Z,0
2017-01-20T03:28:42.292Z,0
2017-01-20T03:29:43.020Z,0
2017-01-20T03:30:42.982Z,0
2017-01-20T03:31:42.973Z,0
2017-01-20T03:32:42.534Z,0
2017-01-20T03:33:42.910Z,0
2017-01-20T03:34:42.463Z,0
2017-01-20T03:35:42.454Z,0
2017-01-20T03:36:42.824Z,0
2017-01-20T03:37:42.800Z,0
2017-01-20T03:38:42.762Z,0
2017-01-20T03:39:43.137Z,0
2017-01-20T03:40:41.937Z,0
2017-01-20T03:41:43.110Z,0
2017-01-20T03:42:42.251Z,0
2017-01-20T03:43:42.625Z,0
2017-01-20T03:44:42.601Z,0
2017-01-20T03:45:42.571Z,0
2017-01-20T03:46:42.144Z,0
2017-01-20T03:47:42.898Z,0
2017-01-20T03:48:42.155Z,0
2017-01-20T03:49:42.526Z,0
2017-01-20T03:50:42.826Z,0
2017-01-20T03:51:41.597Z,0
2017-01-20T03:52:42.377Z,0
2017-01-20T03:53:42.744Z,0
2017-01-20T03:54:42.310Z,0
2017-01-20T03:55:42.301Z,0
2017-01-20T03:56:41.853Z,0
2017-01-20T03:57:42.229Z,0
2017-01-20T03:58:41.790Z,0
2017-01-20T03:59:42.194Z,0
2017-01-20T04:00:42.126Z,0
2017-01-20T04:01:41.700Z,0
2017-01-20T04:02:41.669Z,0
2017-01-20T04:03:42.056Z,0
2017-01-20T04:04:42.021Z,0
2017-01-20T04:05:42.114Z,0
2017-01-20T04:06:42.120Z,0
2017-01-20T04:07:41.936Z,0
2017-01-20T04:08:41.518Z,0
2017-01-20T04:09:41.527Z,0
2017-01-20T04:10:41.975Z,0
2017-01-20T04:11:41.525Z,0
2017-01-20T04:12:41.842Z,0
2017-01-20T04:13:42.182Z,0
2017-01-20T04:14:42.153Z,0
2017-01-20T04:15:42.122Z,0
2017-01-20T04:16:41.277Z,0
2017-01-20T04:17:41.651Z,0
2017-01-20T04:18:42.034Z,0
2017-01-20T04:19:42.009Z,0
2017-01-20T04:20:41.179Z,0
2017-01-20T04:21:41.987Z,0
2017-01-20T04:22:41.108Z,0
2017-01-20T04:23:41.897Z,0
2017-01-20T04:24:41.443Z,0
2017-01-20T04:25:41.836Z,0
2017-01-20T04:26:41.405Z,0
2017-01-20T04:27:41.375Z,0
2017-01-20T04:28:40.934Z,0
2017-01-20T04:29:40.912Z,0
2017-01-20T04:30:41.302Z,0
2017-01-20T04:31:41.669Z,0
2017-01-20T04:32:41.631Z,0
2017-01-20T04:33:41.219Z,0
2017-01-20T04:34:41.573Z,0
2017-01-20T04:35:41.548Z,0
2017-01-20T04:36:41.538Z,0
2017-01-20T04:37:41.091Z,0
2017-01-20T04:38:41.478Z,0
2017-01-20T04:39:41.056Z,0
2017-01-20T04:40:41.024Z,0
2017-01-20T04:41:40.577Z,0
2017-01-20T04:42:41.376Z,0
2017-01-20T04:43:41.320Z,0
2017-01-20T04:44:40.903Z,0
2017-01-20T04:45:40.867Z,0
2017-01-20T04:46:40.839Z,0
2017-01-20T04:47:41.218Z,0
2017-01-20T04:48:40.822Z,0
2017-01-20T04:49:40.777Z,0
2017-01-20T04:50:40.761Z,0
2017-01-20T04:51:41.110Z,0
2017-01-20T04:52:40.686Z,0
2017-01-20T04:53:39.896Z,0
2017-01-20T04:54:40.728Z,0
2017-01-20T04:55:40.619Z,0
2017-01-20T04:56:41.019Z,0
2017-01-20T04:57:40.534Z,0
2017-01-20T04:58:41.020Z,0
2017-01-20T04:59:40.086Z,0
2017-01-20T05:00:40.064Z,0
2017-01-20T05:01:40.897Z,0
2017-01-20T05:02:40.813Z,0
2017-01-20T05:03:40.365Z,0
2017-01-20T05:04:40.745Z,0
2017-01-20T05:05:40.024Z,0
2017-01-20T05:06:39.930Z,0
2017-01-20T05:07:40.309Z,0
2017-01-20T05:08:40.223Z,0
2017-01-20T05:09:39.904Z,0
2017-01-20T05:10:39.776Z,0
2017-01-20T05:11:40.210Z,0
2017-01-20T05:12:40.142Z,0
2017-01-20T05:13:40.180Z,0
2017-01-20T05:14:40.070Z,0
2017-01-20T05:15:40.537Z,0
2017-01-20T05:16:40.009Z,0
2017-01-20T05:17:39.600Z,0
2017-01-20T05:18:39.561Z,0
2017-01-20T05:19:39.507Z,0
2017-01-20T05:20:39.497Z,0
2017-01-20T05:21:39.475Z,0
2017-01-20T05:22:39.443Z,0
2017-01-20T05:23:39.807Z,0
2017-01-20T05:24:39.842Z,0
2017-01-20T05:25:40.165Z,0
2017-01-20T05:26:40.124Z,0
2017-01-20T05:27:39.695Z,0
2017-01-20T05:28:39.274Z,0
2017-01-20T05:29:39.250Z,0
2017-01-20T05:30:39.214Z,0
2017-01-20T05:31:39.602Z,0
2017-01-20T05:32:39.574Z,0
2017-01-20T05:33:39.132Z,0
2017-01-20T05:34:39.927Z,0
2017-01-20T05:35:38.680Z,0
2017-01-20T05:36:39.863Z,0
2017-01-20T05:37:39.020Z,0
2017-01-20T05:38:39.439Z,0
2017-01-20T05:39:39.410Z,0
2017-01-20T05:40:39.349Z,0
2017-01-20T05:41:39.308Z,0
2017-01-20T05:42:39.717Z,0
2017-01-20T05:43:39.258Z,0
2017-01-20T05:44:39.237Z,0
2017-01-20T05:45:39.665Z,0
2017-01-20T05:46:39.195Z,0
2017-01-20T05:47:39.141Z,0
2017-01-20T05:48:38.725Z,0
2017-01-20T05:49:39.504Z,0
2017-01-20T05:50:39.080Z,0
2017-01-20T05:51:39.053Z,0
2017-01-20T05:52:39.013Z,0
2017-01-20T05:53:38.997Z,0
2017-01-20T05:54:38.580Z,0
2017-01-20T05:55:39.341Z,0
2017-01-20T05:56:39.311Z,0
2017-01-20T05:57:38.592Z,0
2017-01-20T05:58:38.860Z,0
2017-01-20T05:59:39.286Z,0
2017-01-20T06:00:38.480Z,0
2017-01-20T06:01:38.429Z,0
2017-01-20T06:02:38.753Z,0
2017-01-20T06:03:38.397Z,0
2017-01-20T06:04:38.698Z,0
2017-01-20T06:05:39.073Z,0
2017-01-20T06:06:38.236Z,0
2017-01-20T06:07:38.705Z,0
2017-01-20T06:08:39.006Z,0
2017-01-20T06:09:38.977Z,0
2017-01-20T06:10:38.623Z,0
2017-01-20T06:11:38.557Z,0
2017-01-20T06:12:38.503Z,0
2017-01-20T06:13:38.542Z,0
2017-01-20T06:14:38.011Z,0
2017-01-20T06:15:37.582Z,0
2017-01-20T06:16:38.364Z,0
2017-01-20T06:17:37.921Z,0
2017-01-20T06:18:38.298Z,0
2017-01-20T06:19:38.276Z,0
2017-01-20T06:20:38.297Z,0
2017-01-20T06:21:37.815Z,0
2017-01-20T06:22:38.604Z,0
2017-01-20T06:23:37.760Z,0
2017-01-20T06:24:37.742Z,0
2017-01-20T06:25:38.606Z,0
2017-01-20T06:26:37.274Z,0
2017-01-20T06:27:37.652Z,0
2017-01-20T06:28:38.544Z,0
2017-01-20T06:29:38.000Z,0
2017-01-20T06:30:38.073Z,0
2017-01-20T06:31:37.953Z,0
2017-01-20T06:32:38.347Z,0
2017-01-20T06:33:38.298Z,0
2017-01-20T06:34:37.457Z,0
2017-01-20T06:35:37.849Z,0
2017-01-20T06:36:36.994Z,0
2017-01-20T06:37:37.379Z,0
2017-01-20T06:38:36.946Z,0
2017-01-20T06:39:37.770Z,0
2017-01-20T06:40:37.694Z,0
2017-01-20T06:41:37.664Z,0
2017-01-20T06:42:36.844Z,0
2017-01-20T06:43:38.115Z,0
2017-01-20T06:44:37.985Z,0
2017-01-20T06:45:37.140Z,0
2017-01-20T06:46:37.527Z,4
2017-01-20T06:47:37.508Z,0
2017-01-20T06:48:37.068Z,0
2017-01-20T06:49:37.439Z,4
2017-01-20T06:50:37.470Z,0
2017-01-20T06:51:36.983Z,4
2017-01-20T06:52:37.770Z,0
2017-01-20T06:53:37.735Z,4
2017-01-20T06:54:36.550Z,4
2017-01-20T06:55:36.871Z,8
2017-01-20T06:56:37.757Z,8
2017-01-20T06:57:37.636Z,4
2017-01-20T06:58:37.191Z,8
2017-01-20T06:59:37.176Z,12
2017-01-20T07:00:37.159Z,12
2017-01-20T07:01:36.717Z,16
2017-01-20T07:02:37.505Z,16
2017-01-20T07:03:37.473Z,16
2017-01-20T07:04:37.055Z,20
2017-01-20T07:05:37.401Z,24
2017-01-20T07:06:36.593Z,32
2017-01-20T07:07:36.954Z,32
2017-01-20T07:08:36.938Z,36
2017-01-20T07:09:36.967Z,44
2017-01-20T07:10:37.370Z,44
2017-01-20T07:11:36.534Z,48
2017-01-20T07:12:36.822Z,56
2017-01-20T07:13:36.811Z,64
2017-01-20T07:14:37.169Z,72
2017-01-20T07:15:36.353Z,80
2017-01-20T07:16:37.109Z,88
2017-01-20T07:17:36.709Z,96
2017-01-20T07:18:36.649Z,104
2017-01-20T07:19:35.827Z,112
2017-01-20T07:20:36.594Z,124
2017-01-20T07:21:36.974Z,128
2017-01-20T07:22:36.942Z,140
2017-01-20T07:23:36.925Z,148
2017-01-20T07:24:36.494Z,160
2017-01-20T07:25:36.064Z,172
2017-01-20T07:26:36.421Z,184
2017-01-20T07:27:36.805Z,204
2017-01-20T07:28:36.400Z,216
2017-01-20T07:29:36.762Z,232
2017-01-20T07:30:36.722Z,252
2017-01-20T07:31:36.430Z,272
2017-01-20T07:32:36.280Z,288
2017-01-20T07:33:35.847Z,304
2017-01-20T07:34:36.210Z,328
2017-01-20T07:35:36.196Z,352
2017-01-20T07:36:36.248Z,376
2017-01-20T07:37:36.211Z,400
2017-01-20T07:38:36.160Z,428
2017-01-20T07:39:35.695Z,448
2017-01-20T07:40:36.468Z,464
2017-01-20T07:41:35.645Z,484
2017-01-20T07:42:36.005Z,512
2017-01-20T07:43:35.155Z,532
2017-01-20T07:44:36.457Z,560
2017-01-20T07:45:36.325Z,596
2017-01-20T07:46:36.334Z,624
2017-01-20T07:47:36.294Z,652
2017-01-20T07:48:36.244Z,688
2017-01-20T07:49:35.894Z,732
2017-01-20T07:50:35.820Z,784
2017-01-20T07:51:35.359Z,828
2017-01-20T07:52:35.842Z,872
2017-01-20T07:53:35.310Z,920
2017-01-20T07:54:35.269Z,948
2017-01-20T07:55:36.048Z,984
2017-01-20T07:56:36.018Z,1024
2017-01-20T07:57:35.608Z,1076
2017-01-20T07:58:35.966Z,1144
2017-01-20T07:59:35.538Z,1208
2017-01-20T08:00:35.560Z,1248
2017-01-20T08:01:35.480Z,1284
2017-01-20T08:02:35.045Z,1316
2017-01-20T08:03:35.891Z,1344
2017-01-20T08:04:35.802Z,1368
2017-01-20T08:05:35.404Z,1396
2017-01-20T08:06:35.751Z,1420
2017-01-20T08:07:35.841Z,1456
2017-01-20T08:08:35.690Z,1500
2017-01-20T08:09:35.672Z,1544
2017-01-20T08:10:35.239Z,1600
2017-01-20T08:11:35.216Z,1684
2017-01-20T08:12:34.768Z,1776
2017-01-20T08:13:35.574Z,1872
2017-01-20T08:14:35.549Z,1992
2017-01-20T08:15:35.107Z,2108
2017-01-20T08:16:35.065Z,2248
2017-01-20T08:17:35.434Z,2400
2017-01-20T08:18:35.034Z,2532
2017-01-20T08:19:35.013Z,2688
2017-01-20T08:20:35.002Z,2856
2017-01-20T08:21:34.551Z,3020
2017-01-20T08:22:35.299Z,3164
2017-01-20T08:23:34.473Z,3228
2017-01-20T08:24:34.522Z,3404
2017-01-20T08:25:35.234Z,3608
2017-01-20T08:26:35.204Z,3768
2017-01-20T08:27:34.758Z,3920
2017-01-20T08:28:34.857Z,4228
2017-01-20T08:29:35.125Z,4440
2017-01-20T08:30:34.744Z,4528
2017-01-20T08:31:34.313Z,4620
2017-01-20T08:32:34.644Z,4752
2017-01-20T08:33:34.219Z,4896
2017-01-20T08:34:34.631Z,5048
2017-01-20T08:35:34.551Z,5164
2017-01-20T08:36:34.140Z,5220
2017-01-20T08:37:34.908Z,5320
2017-01-20T08:38:34.091Z,5444
2017-01-20T08:39:33.645Z,5552
2017-01-20T08:40:34.426Z,5696
2017-01-20T08:41:34.417Z,5940
2017-01-20T08:42:34.351Z,6184
2017-01-20T08:43:34.345Z,6332
2017-01-20T08:44:34.724Z,6720
2017-01-20T08:45:34.284Z,7272
2017-01-20T08:46:34.269Z,7948
2017-01-20T08:47:33.437Z,8328
2017-01-20T08:48:34.633Z,8732
2017-01-20T08:49:34.627Z,9308
2017-01-20T08:50:34.172Z,10212
2017-01-20T08:51:33.721Z,11232
2017-01-20T08:52:34.122Z,11628
2017-01-20T08:53:34.085Z,12028
2017-01-20T08:54:33.247Z,12892
2017-01-20T08:55:34.040Z,13268
2017-01-20T08:56:34.013Z,13476
2017-01-20T08:57:33.977Z,14752
2017-01-20T08:58:34.909Z,17152
2017-01-20T08:59:33.921Z,19328
2017-01-20T09:00:33.936Z,19072
2017-01-20T09:01:33.886Z,19072
2017-01-20T09:02:33.863Z,20576
2017-01-20T09:03:34.255Z,22720
2017-01-20T09:04:33.466Z,24320
2017-01-20T09:05:33.814Z,24384
2017-01-20T09:06:33.372Z,25568
2017-01-20T09:07:32.931Z,28160
2017-01-20T09:08:33.741Z,28032
2017-01-20T09:09:33.731Z,28480
2017-01-20T09:10:33.661Z,31360
2017-01-20T09:11:33.658Z,31584
2017-01-20T09:12:33.644Z,31776
2017-01-20T09:13:34.020Z,31648
2017-01-20T09:14:33.981Z,27808
2017-01-20T09:15:33.979Z,22848
2017-01-20T09:16:33.163Z,23936
2017-01-20T09:17:33.927Z,27744
2017-01-20T09:18:33.506Z,27520
2017-01-20T09:19:33.902Z,25536
2017-01-20T09:20:33.878Z,24512
2017-01-20T09:21:33.445Z,22208
2017-01-20T09:22:33.881Z,20576
2017-01-20T09:23:33.413Z,20256
2017-01-20T09:24:33.444Z,21888
2017-01-20T09:25:33.365Z,21888
2017-01-20T09:26:33.423Z,21664
2017-01-20T09:27:33.331Z,19936
2017-01-20T09:28:33.335Z,17792
2017-01-20T09:29:33.289Z,18208
2017-01-20T09:30:33.277Z,18720
2017-01-20T09:31:33.641Z,19744
2017-01-20T09:32:33.620Z,18912
2017-01-20T09:33:33.236Z,18816
2017-01-20T09:34:32.787Z,18880
2017-01-20T09:35:33.568Z,19680
2017-01-20T09:36:33.629Z,20224
2017-01-20T09:37:33.105Z,21376
2017-01-20T09:38:32.770Z,23264
2017-01-20T09:39:32.683Z,23904
2017-01-20T09:40:33.117Z,24768
2017-01-20T09:41:33.435Z,23584
2017-01-20T09:42:33.012Z,25568
2017-01-20T09:43:33.476Z,25408
2017-01-20T09:44:33.017Z,24704
2017-01-20T09:45:32.989Z,24448
2017-01-20T09:46:32.949Z,24544
2017-01-20T09:47:33.392Z,21696
2017-01-20T09:48:32.511Z,21632
2017-01-20T09:49:33.341Z,19104
2017-01-20T09:50:32.119Z,18240
2017-01-20T09:51:32.903Z,18144
2017-01-20T09:52:32.431Z,17440
2017-01-20T09:53:32.808Z,17920
2017-01-20T09:54:33.262Z,15104
2017-01-20T09:55:32.385Z,18496
2017-01-20T09:56:32.769Z,19232
2017-01-20T09:57:32.746Z,20768
2017-01-20T09:58:32.727Z,20288
2017-01-20T09:59:32.754Z,21248
2017-01-20T10:00:33.094Z,20640
2017-01-20T10:01:33.057Z,20352
2017-01-20T10:02:33.051Z,19616
2017-01-20T10:03:33.093Z,21536
2017-01-20T10:04:32.251Z,21632
2017-01-20T10:05:32.303Z,21184
2017-01-20T10:06:32.572Z,19648
2017-01-20T10:07:33.028Z,18080
2017-01-20T10:08:32.982Z,18208
2017-01-20T10:09:32.517Z,18144
2017-01-20T10:10:32.502Z,17664
2017-01-20T10:11:32.475Z,17952
2017-01-20T10:12:32.145Z,16800
2017-01-20T10:13:32.494Z,16896
2017-01-20T10:14:32.829Z,17728
2017-01-20T10:15:32.405Z,17760
2017-01-20T10:16:32.039Z,17728
2017-01-20T10:17:32.783Z,19264
2017-01-20T10:18:32.741Z,20544
2017-01-20T10:19:32.326Z,20672
2017-01-20T10:20:32.312Z,19808
2017-01-20T10:21:32.300Z,20384
2017-01-20T10:22:31.965Z,20704
2017-01-20T10:23:32.364Z,20064
2017-01-20T10:24:32.629Z,20288
2017-01-20T10:25:32.224Z,20192
2017-01-20T10:26:32.193Z,18944
2017-01-20T10:27:31.772Z,17856
2017-01-20T10:28:31.772Z,17952
2017-01-20T10:29:31.739Z,16640
2017-01-20T10:30:32.524Z,16576
2017-01-20T10:31:32.515Z,15456
2017-01-20T10:32:32.499Z,16000
2017-01-20T10:33:32.098Z,16672
2017-01-20T10:34:32.059Z,16864
2017-01-20T10:35:32.457Z,17312
2017-01-20T10:36:32.427Z,17088
2017-01-20T10:37:32.412Z,17344
2017-01-20T10:38:32.388Z,16512
2017-01-20T10:39:31.965Z,17952
2017-01-20T10:40:32.355Z,17632
2017-01-20T10:41:32.342Z,15808
2017-01-20T10:42:32.326Z,15136
2017-01-20T10:43:31.492Z,16032
2017-01-20T10:44:31.551Z,16000
2017-01-20T10:45:31.873Z,15008
2017-01-20T10:46:32.243Z,15008
2017-01-20T10:47:32.232Z,14592
2017-01-20T10:48:31.815Z,14464
2017-01-20T10:49:31.398Z,14048
2017-01-20T10:50:32.176Z,13700
2017-01-20T10:51:31.360Z,14468
2017-01-20T10:52:31.741Z,11340
2017-01-20T10:53:32.138Z,10256
2017-01-20T10:54:31.728Z,8704
2017-01-20T10:55:31.687Z,9120
2017-01-20T10:56:31.680Z,9032
2017-01-20T10:57:31.657Z,9232
2017-01-20T10:58:31.669Z,9312
2017-01-20T10:59:31.654Z,10132
2017-01-20T11:00:32.016Z,10156
2017-01-20T11:01:31.584Z,10452
2017-01-20T11:02:31.978Z,10936
2017-01-20T11:03:31.664Z,10424
2017-01-20T11:04:31.144Z,10916
2017-01-20T11:05:31.932Z,10472
2017-01-20T11:06:32.027Z,11008
2017-01-20T11:07:31.895Z,12188
2017-01-20T11:08:31.472Z,12392
2017-01-20T11:09:31.075Z,12964
2017-01-20T11:10:31.879Z,13684
2017-01-20T11:11:31.399Z,15040
2017-01-20T11:12:31.799Z,15552
2017-01-20T11:13:31.367Z,15776
2017-01-20T11:14:31.865Z,15520
2017-01-20T11:15:31.757Z,16480
2017-01-20T11:16:30.967Z,15712
2017-01-20T11:17:31.713Z,14976
2017-01-20T11:18:31.698Z,14944
2017-01-20T11:19:30.875Z,16576
2017-01-20T11:20:31.285Z,18240
2017-01-20T11:21:31.234Z,18720
2017-01-20T11:22:31.198Z,18176
2017-01-20T11:23:31.216Z,18528
2017-01-20T11:24:30.822Z,18016
2017-01-20T11:25:31.181Z,18400
2017-01-20T11:26:31.556Z,17920
2017-01-20T11:27:30.731Z,17536
2017-01-20T11:28:31.581Z,16896
2017-01-20T11:29:31.508Z,18048
2017-01-20T11:30:31.546Z,16928
2017-01-20T11:31:31.069Z,15424
2017-01-20T11:32:31.058Z,16544
2017-01-20T11:33:31.038Z,16640
2017-01-20T11:34:30.618Z,16448
2017-01-20T11:35:31.404Z,15744
2017-01-20T11:36:31.410Z,15392
2017-01-20T11:37:31.375Z,14656
2017-01-20T11:38:31.365Z,14112
2017-01-20T11:39:31.354Z,14336
2017-01-20T11:40:31.336Z,13984
2017-01-20T11:41:31.320Z,14080
2017-01-20T11:42:30.903Z,14240
2017-01-20T11:43:31.284Z,13236
2017-01-20T11:44:30.857Z,13160
2017-01-20T11:45:30.088Z,13524
2017-01-20T11:46:30.841Z,13888
2017-01-20T11:47:31.233Z,13432
2017-01-20T11:48:31.213Z,13496
2017-01-20T11:49:30.795Z,13532
2017-01-20T11:50:31.179Z,13780
2017-01-20T11:51:31.179Z,14080
2017-01-20T11:52:30.838Z,13664
2017-01-20T11:53:30.732Z,12532
2017-01-20T11:54:31.117Z,11920
2017-01-20T11:55:31.107Z,12256
2017-01-20T11:56:31.075Z,11728
2017-01-20T11:57:31.085Z,11168
2017-01-20T11:58:30.238Z,11152
2017-01-20T11:59:31.054Z,10972
2017-01-20T12:00:31.052Z,11360
2017-01-20T12:01:31.017Z,10964
2017-01-20T12:02:30.191Z,10640
2017-01-20T12:03:30.974Z,11544
2017-01-20T12:04:30.978Z,10292
2017-01-20T12:05:30.548Z,10824
2017-01-20T12:06:30.950Z,11688
2017-01-20T12:07:29.769Z,12952
2017-01-20T12:08:30.514Z,14624
2017-01-20T12:09:29.697Z,14560
2017-01-20T12:10:30.878Z,14688
2017-01-20T12:11:30.457Z,15776
2017-01-20T12:12:29.620Z,16832
2017-01-20T12:13:30.449Z,15808
2017-01-20T12:14:30.397Z,15328
2017-01-20T12:15:30.812Z,16064
2017-01-20T12:16:30.062Z,15072
2017-01-20T12:17:30.764Z,13640
2017-01-20T12:18:30.873Z,14464
2017-01-20T12:19:30.733Z,14688
2017-01-20T12:20:29.908Z,15008
2017-01-20T12:21:30.292Z,15232
2017-01-20T12:22:30.280Z,15040
2017-01-20T12:23:30.260Z,14880
2017-01-20T12:24:30.741Z,14272
2017-01-20T12:25:30.229Z,12616
2017-01-20T12:26:30.229Z,13456
2017-01-20T12:27:29.787Z,13404
2017-01-20T12:28:30.187Z,13024
2017-01-20T12:29:30.177Z,13364
2017-01-20T12:30:30.156Z,14496
2017-01-20T12:31:29.745Z,13968
2017-01-20T12:32:30.525Z,14752
2017-01-20T12:33:30.105Z,15648
2017-01-20T12:34:30.083Z,16544
2017-01-20T12:35:29.685Z,18208
2017-01-20T12:36:30.065Z,17760
2017-01-20T12:37:30.030Z,16960
2017-01-20T12:38:30.036Z,16320
2017-01-20T12:39:30.511Z,15104
2017-01-20T12:40:30.001Z,16000
2017-01-20T12:41:29.573Z,15904
2017-01-20T12:42:29.957Z,15584
2017-01-20T12:43:30.340Z,16032
2017-01-20T12:44:29.922Z,15680
2017-01-20T12:45:29.914Z,15648
2017-01-20T12:46:29.895Z,14688
2017-01-20T12:47:29.477Z,13828
2017-01-20T12:48:30.266Z,13160
2017-01-20T12:49:29.845Z,12060
2017-01-20T12:50:30.225Z,13072
2017-01-20T12:51:29.820Z,14012
2017-01-20T12:52:29.416Z,14456
2017-01-20T12:53:29.395Z,15296
2017-01-20T12:54:29.364Z,15552
2017-01-20T12:55:30.195Z,15328
2017-01-20T12:56:29.742Z,16288
2017-01-20T12:57:30.110Z,16640
2017-01-20T12:58:30.102Z,16064
2017-01-20T12:59:29.695Z,15328
2017-01-20T13:00:29.662Z,15200
2017-01-20T13:01:30.121Z,14656
2017-01-20T13:02:29.240Z,15072
2017-01-20T13:03:29.680Z,14880
2017-01-20T13:04:29.609Z,14372
2017-01-20T13:05:29.618Z,14560
2017-01-20T13:06:29.570Z,13700
2017-01-20T13:07:29.986Z,12952
2017-01-20T13:08:29.530Z,13140
2017-01-20T13:09:29.538Z,13448
2017-01-20T13:10:29.527Z,13924
2017-01-20T13:11:29.906Z,14072
2017-01-20T13:12:29.497Z,12820
2017-01-20T13:13:29.050Z,11820
2017-01-20T13:14:29.444Z,11124
2017-01-20T13:15:29.476Z,11032
2017-01-20T13:16:28.592Z,10648
2017-01-20T13:17:29.423Z,10740
2017-01-20T13:18:29.772Z,10656
2017-01-20T13:19:29.363Z,11808
2017-01-20T13:20:28.941Z,11944
2017-01-20T13:21:29.732Z,11776
2017-01-20T13:22:29.318Z,11692
2017-01-20T13:23:29.700Z,11904
2017-01-20T13:24:29.271Z,11376
2017-01-20T13:25:29.269Z,10640
2017-01-20T13:26:29.236Z,11640
2017-01-20T13:27:29.266Z,11988
2017-01-20T13:28:29.192Z,12512
2017-01-20T13:29:29.596Z,12564
2017-01-20T13:30:29.625Z,11924
2017-01-20T13:31:29.207Z,11684
2017-01-20T13:32:28.724Z,11972
2017-01-20T13:33:28.745Z,11616
2017-01-20T13:34:29.504Z,11656
2017-01-20T13:35:29.481Z,10892
2017-01-20T13:36:29.047Z,9136
2017-01-20T13:37:29.038Z,10064
2017-01-20T13:38:28.638Z,9972
2017-01-20T13:39:29.487Z,11980
2017-01-20T13:40:28.980Z,11128
2017-01-20T13:41:29.380Z,11456
2017-01-20T13:42:28.950Z,10736
2017-01-20T13:43:29.369Z,10856
2017-01-20T13:44:29.389Z,11356
2017-01-20T13:45:29.367Z,12272
2017-01-20T13:46:28.889Z,12300
2017-01-20T13:47:28.866Z,12412
2017-01-20T13:48:29.335Z,11612
2017-01-20T13:49:28.825Z,11204
2017-01-20T13:50:28.825Z,11576
2017-01-20T13:51:29.209Z,11072
2017-01-20T13:52:29.175Z,10988
2017-01-20T13:53:28.762Z,10156